Time;durP1;ratioP1;P1;durP2;ratioP2;P2;SDS_P1;SDS_P2;PMS_P1;PMS_P2;Temp;Humidity;BMP_temperature;BMP_pressure;BME280_temperature;BME280_humidity;BME280_pressure;Samples;Min_cycle;Max_cycle;Signal;HPM_P1;HPM_P2
2022/08/24 00:01:09;;;;;;;31.50;28.20;;;19.50;99.90;;;;;;5041188;28;20131;-82
2022/08/24 00:03:37;;;;;;;32.30;28.77;;;19.50;99.90;;;;;;5048058;28;20045;-81
2022/08/24 00:06:05;;;;;;;32.95;29.35;;;19.40;99.90;;;;;;5050005;28;20132;-82
2022/08/24 00:08:32;;;;;;;41.95;31.85;;;19.40;99.90;;;;;;5014106;28;20037;-83
2022/08/24 00:10:58;;;;;;;33.22;29.08;;;19.40;99.90;;;;;;5028485;28;20422;-83
2022/08/24 00:13:25;;;;;;;30.80;26.65;;;19.30;99.90;;;;;;5046664;28;20344;-82
2022/08/24 00:15:51;;;;;;;34.70;28.50;;;19.40;99.90;;;;;;5028188;28;20106;-83
2022/08/24 00:18:17;;;;;;;32.70;28.42;;;19.40;99.90;;;;;;5011143;28;20053;-82
2022/08/24 00:20:43;;;;;;;33.20;28.50;;;19.30;99.90;;;;;;5047337;28;20434;-82
2022/08/24 00:23:09;;;;;;;31.65;28.38;;;19.30;99.90;;;;;;5043431;28;20029;-81
2022/08/24 00:25:35;;;;;;;35.85;29.05;;;19.30;99.90;;;;;;5048019;28;20515;-78
2022/08/24 00:28:02;;;;;;;32.13;28.75;;;19.30;99.90;;;;;;5048356;28;20127;-82
2022/08/24 00:30:28;;;;;;;31.10;27.98;;;19.20;99.90;;;;;;5044771;28;20198;-81
2022/08/24 00:32:54;;;;;;;34.33;29.30;;;19.20;99.90;;;;;;5030700;28;20101;-82
2022/08/24 00:35:21;;;;;;;32.33;29.13;;;19.20;99.90;;;;;;5029638;28;20106;-82
2022/08/24 00:37:48;;;;;;;31.33;28.00;;;19.10;99.90;;;;;;5048461;28;20116;-83
2022/08/24 00:40:22;;;;;;;31.77;28.33;;;19.00;99.90;;;;;;5025845;28;20048;-82
2022/08/24 00:42:49;;;;;;;34.72;29.05;;;18.90;99.90;;;;;;5046868;28;20129;-82
2022/08/24 00:45:16;;;;;;;32.78;29.55;;;19.00;99.90;;;;;;5027823;28;20037;-81
2022/08/24 00:47:58;;;;;;;33.33;30.05;;;19.00;99.90;;;;;;5045350;28;20053;-83
2022/08/24 00:50:37;;;;;;;31.27;28.38;;;19.00;99.90;;;;;;5006795;28;20523;-82
2022/08/24 00:53:08;;;;;;;31.13;27.90;;;19.00;99.90;;;;;;5008615;28;20042;-82
2022/08/24 00:55:40;;;;;;;33.63;30.02;;;19.00;99.90;;;;;;4989724;28;20052;-80
2022/08/24 00:58:16;;;;;;;36.92;31.95;;;19.10;99.90;;;;;;5007166;28;20046;-83
2022/08/24 01:00:48;;;;;;;37.17;33.05;;;19.10;99.90;;;;;;5005503;28;20057;-84
2022/08/24 01:03:13;;;;;;;34.42;31.23;;;19.00;99.90;;;;;;5007223;28;20044;-85
2022/08/24 01:05:40;;;;;;;39.13;31.85;;;19.10;99.90;;;;;;5004514;28;20124;-84
2022/08/24 01:08:08;;;;;;;36.58;31.77;;;18.90;99.90;;;;;;5005011;28;20527;-85
2022/08/24 01:10:40;;;;;;;37.60;32.47;;;19.00;99.90;;;;;;5006256;28;20081;-83
2022/08/24 01:13:07;;;;;;;38.25;34.35;;;19.00;99.90;;;;;;5004142;28;20559;-82
2022/08/24 01:15:37;;;;;;;38.60;34.70;;;19.00;99.90;;;;;;5008078;28;20507;-82
2022/08/24 01:20:58;;;;;;;37.85;33.33;;;19.00;99.90;;;;;;5006152;28;20049;-81
2022/08/24 01:23:40;;;;;;;34.63;31.17;;;19.00;99.90;;;;;;5010273;28;20089;-82
2022/08/24 01:26:08;;;;;;;33.45;29.73;;;18.90;99.90;;;;;;5012298;28;20046;-80
2022/08/24 01:28:36;;;;;;;32.17;28.98;;;18.90;99.90;;;;;;5012293;28;20524;-82
2022/08/24 01:31:02;;;;;;;33.13;29.73;;;18.80;99.90;;;;;;5009302;28;20042;-83
2022/08/24 01:33:30;;;;;;;33.40;29.92;;;18.80;99.90;;;;;;5012699;28;20046;-82
2022/08/24 01:36:21;;;;;;;34.40;30.67;;;18.80;99.90;;;;;;5013585;28;20045;-82
2022/08/24 01:38:48;;;;;;;31.42;28.23;;;18.60;99.90;;;;;;5009934;28;20084;-82
2022/08/24 01:41:13;;;;;;;34.92;31.33;;;18.60;99.90;;;;;;5006663;28;20401;-82
2022/08/24 01:43:40;;;;;;;32.20;28.73;;;18.70;99.90;;;;;;5004932;28;20417;-82
2022/08/24 01:46:05;;;;;;;35.47;31.88;;;18.60;99.90;;;;;;5005583;28;20041;-82
2022/08/24 01:48:31;;;;;;;35.55;32.05;;;18.50;99.90;;;;;;5012755;28;20509;-81
2022/08/24 01:50:57;;;;;;;33.20;29.42;;;18.40;99.90;;;;;;5045796;28;20081;-83
2022/08/24 01:53:23;;;;;;;37.33;33.35;;;18.40;99.90;;;;;;5028818;28;20053;-82
2022/08/24 01:55:49;;;;;;;36.42;32.63;;;18.40;99.90;;;;;;5044465;28;20047;-83
2022/08/24 01:58:14;;;;;;;36.45;32.63;;;18.40;99.90;;;;;;5028697;28;20072;-82
2022/08/24 02:00:40;;;;;;;38.05;33.95;;;18.50;99.90;;;;;;5027562;28;20432;-82
2022/08/24 02:03:06;;;;;;;38.00;33.75;;;18.30;99.90;;;;;;5044257;28;20033;-82
2022/08/24 02:05:33;;;;;;;39.58;35.38;;;18.40;99.90;;;;;;5028147;28;20120;-82
2022/08/24 02:07:58;;;;;;;40.95;33.25;;;18.40;99.90;;;;;;5046975;28;20045;-82
2022/08/24 02:10:27;;;;;;;38.90;34.42;;;18.60;99.90;;;;;;5046899;28;20098;-82
2022/08/24 02:12:56;;;;;;;38.03;33.63;;;18.50;99.90;;;;;;5030926;28;20583;-82
2022/08/24 02:15:26;;;;;;;33.58;30.15;;;18.40;99.90;;;;;;5043962;28;22012;-81
2022/08/24 02:17:52;;;;;;;35.33;31.30;;;18.40;99.90;;;;;;5046706;28;20048;-81
2022/08/24 02:20:20;;;;;;;37.50;33.50;;;18.20;99.90;;;;;;5047218;28;20116;-81
2022/08/24 02:22:47;;;;;;;32.45;29.17;;;18.20;99.90;;;;;;5048724;28;20045;-82
2022/08/24 02:25:13;;;;;;;37.45;32.28;;;18.30;99.90;;;;;;5046953;28;20055;-83
2022/08/24 02:27:39;;;;;;;35.40;31.75;;;18.30;99.90;;;;;;5026549;28;20440;-81
2022/08/24 02:30:05;;;;;;;37.83;33.85;;;18.40;99.90;;;;;;5043619;28;20075;-81
2022/08/24 02:32:31;;;;;;;39.72;33.50;;;18.20;99.90;;;;;;5050499;28;20072;-81
2022/08/24 02:34:57;;;;;;;36.17;32.28;;;18.10;99.90;;;;;;5031494;28;20060;-81
2022/08/24 02:37:22;;;;;;;38.53;34.40;;;18.30;99.90;;;;;;5031182;28;20041;-81
2022/08/24 02:39:48;;;;;;;37.15;33.40;;;18.20;99.90;;;;;;5044836;28;20047;-83
2022/08/24 02:42:14;;;;;;;36.00;32.38;;;18.20;99.90;;;;;;5046879;28;20039;-81
2022/08/24 02:44:40;;;;;;;40.13;36.03;;;18.20;99.90;;;;;;5045557;28;20097;-83
2022/08/24 02:47:06;;;;;;;39.47;35.47;;;18.20;99.90;;;;;;5028482;28;20044;-81
2022/08/24 02:49:32;;;;;;;37.55;32.08;;;18.10;99.90;;;;;;5029721;28;20057;-80
2022/08/24 02:51:58;;;;;;;35.80;32.25;;;18.20;99.90;;;;;;5046760;28;20071;-82
2022/08/24 02:54:23;;;;;;;42.60;35.38;;;18.10;99.90;;;;;;5039582;28;20042;-82
2022/08/24 02:56:49;;;;;;;34.95;31.10;;;18.20;99.90;;;;;;5042013;28;20051;-82
2022/08/24 02:59:15;;;;;;;34.72;31.42;;;18.00;99.90;;;;;;5044984;28;21448;-82
2022/08/24 03:01:41;;;;;;;33.10;29.63;;;18.00;99.90;;;;;;5028542;28;20083;-83
2022/08/24 03:04:07;;;;;;;34.20;30.80;;;17.90;99.90;;;;;;5048082;28;20068;-82
2022/08/24 03:06:32;;;;;;;37.28;33.38;;;17.90;99.90;;;;;;5048691;28;20132;-82
2022/08/24 03:08:58;;;;;;;31.23;28.13;;;18.00;99.90;;;;;;5029302;28;20127;-82
2022/08/24 03:11:24;;;;;;;30.20;27.13;;;17.90;99.90;;;;;;5047653;28;20067;-82
2022/08/24 03:13:50;;;;;;;33.55;28.90;;;18.10;99.90;;;;;;5046859;28;20036;-82
2022/08/24 03:16:16;;;;;;;36.03;32.20;;;17.90;99.90;;;;;;5022987;28;20048;-81
2022/08/24 03:18:42;;;;;;;33.90;30.25;;;17.90;99.90;;;;;;5043955;28;20120;-82
2022/08/24 03:21:09;;;;;;;33.70;30.13;;;18.00;99.90;;;;;;5028793;28;20420;-83
2022/08/24 03:23:35;;;;;;;35.83;32.22;;;18.00;99.90;;;;;;5034969;28;20112;-78
2022/08/24 03:26:01;;;;;;;35.15;31.40;;;18.00;99.90;;;;;;5044798;28;20045;-82
2022/08/24 03:28:26;;;;;;;33.85;30.25;;;17.80;99.90;;;;;;5025974;28;20083;-84
2022/08/24 03:30:52;;;;;;;31.65;28.50;;;18.00;99.90;;;;;;5043771;28;20041;-83
2022/08/24 03:33:19;;;;;;;34.00;28.42;;;17.90;99.90;;;;;;5046002;28;20045;-82
2022/08/24 03:35:45;;;;;;;31.08;27.85;;;17.90;99.90;;;;;;5045910;28;20080;-82
2022/08/24 03:38:12;;;;;;;30.10;27.10;;;17.90;99.90;;;;;;5047163;28;20399;-82
2022/08/24 03:40:39;;;;;;;30.52;27.30;;;17.80;99.90;;;;;;5030748;28;20051;-82
2022/08/24 03:43:05;;;;;;;34.63;29.98;;;17.60;99.90;;;;;;5047726;28;20157;-82
2022/08/24 03:45:31;;;;;;;34.10;30.90;;;17.50;99.90;;;;;;5028934;28;20048;-83
2022/08/24 03:47:57;;;;;;;31.35;28.25;;;17.50;99.90;;;;;;5045591;28;20033;-83
2022/08/24 03:50:23;;;;;;;30.65;27.45;;;17.60;99.90;;;;;;5047431;28;20052;-82
2022/08/24 03:52:50;;;;;;;33.08;29.70;;;17.60;99.90;;;;;;5046684;28;20047;-82
2022/08/24 03:55:16;;;;;;;35.20;31.75;;;17.60;99.90;;;;;;5048664;28;20067;-81
2022/08/24 03:57:42;;;;;;;33.00;29.55;;;17.60;99.90;;;;;;5030568;28;20408;-82
2022/08/24 04:00:10;;;;;;;30.98;27.58;;;17.60;99.90;;;;;;5048225;28;20052;-83
2022/08/24 04:02:36;;;;;;;29.52;26.58;;;17.60;99.90;;;;;;5044883;28;20462;-82
2022/08/24 04:05:04;;;;;;;35.30;31.63;;;17.60;99.90;;;;;;5049678;28;20049;-83
2022/08/24 04:07:30;;;;;;;33.45;30.00;;;17.70;99.90;;;;;;5047309;28;20048;-83
2022/08/24 04:09:56;;;;;;;32.10;28.67;;;17.60;99.90;;;;;;5047199;28;20063;-81
2022/08/24 04:12:22;;;;;;;31.95;28.67;;;17.60;99.90;;;;;;5048804;28;20041;-84
2022/08/24 04:14:50;;;;;;;29.80;26.80;;;17.70;99.90;;;;;;5046156;28;20376;-82
2022/08/24 04:17:17;;;;;;;32.05;28.67;;;17.60;99.90;;;;;;5029417;28;20056;-82
2022/08/24 04:19:56;;;;;;;30.98;27.88;;;17.60;99.90;;;;;;5030985;28;20049;-82
2022/08/24 04:22:32;;;;;;;30.25;27.20;;;17.70;99.90;;;;;;5047554;28;20045;-81
2022/08/24 04:24:58;;;;;;;31.80;28.60;;;17.70;99.90;;;;;;5047354;28;20043;-83
2022/08/24 04:27:24;;;;;;;32.17;28.70;;;17.60;99.90;;;;;;5046206;28;20474;-84
2022/08/24 04:29:50;;;;;;;34.13;30.08;;;17.60;99.90;;;;;;5047401;28;20044;-81
2022/08/24 04:32:16;;;;;;;31.80;28.73;;;17.60;99.90;;;;;;5049168;28;20037;-82
2022/08/24 04:34:43;;;;;;;31.40;28.08;;;17.60;99.90;;;;;;5045618;28;20136;-82
2022/08/24 04:37:10;;;;;;;29.88;26.80;;;17.60;99.90;;;;;;5045986;28;20095;-83
2022/08/24 04:39:36;;;;;;;28.02;25.27;;;17.60;99.90;;;;;;5047357;28;20699;-80
2022/08/24 04:42:02;;;;;;;28.27;25.50;;;17.60;99.90;;;;;;5051068;28;20045;-81
2022/08/24 04:44:28;;;;;;;27.95;25.10;;;17.50;99.90;;;;;;5048720;28;20620;-82
2022/08/24 04:46:55;;;;;;;28.73;25.67;;;17.50;99.90;;;;;;5046137;28;20537;-81
2022/08/24 04:49:21;;;;;;;26.08;23.40;;;17.40;99.90;;;;;;5046831;28;20137;-83
2022/08/24 04:51:47;;;;;;;25.83;23.23;;;17.50;99.90;;;;;;5046034;28;20053;-83
2022/08/24 04:54:12;;;;;;;25.45;22.95;;;17.50;99.90;;;;;;5029588;28;20118;-81
2022/08/24 04:56:38;;;;;;;26.50;23.70;;;17.40;99.90;;;;;;5045885;28;21248;-81
2022/08/24 04:59:05;;;;;;;29.92;27.02;;;17.50;99.90;;;;;;5046971;28;20385;-81
2022/08/24 05:01:31;;;;;;;33.40;29.85;;;17.60;99.90;;;;;;5047841;28;20045;-81
2022/08/24 05:03:57;;;;;;;32.00;28.75;;;17.50;99.90;;;;;;5029560;28;20400;-79
2022/08/24 05:06:26;;;;;;;31.15;26.23;;;17.60;99.90;;;;;;5045946;28;20041;-80
2022/08/24 05:08:53;;;;;;;32.50;29.13;;;17.50;99.90;;;;;;5047039;28;20033;-80
2022/08/24 05:11:20;;;;;;;32.45;28.95;;;17.60;99.90;;;;;;5029225;28;20060;-79
2022/08/24 05:13:47;;;;;;;31.55;28.42;;;17.60;99.90;;;;;;5046455;28;20458;-79
2022/08/24 05:16:15;;;;;;;31.85;28.38;;;17.70;99.90;;;;;;5044309;28;20088;-79
2022/08/24 05:18:41;;;;;;;30.60;27.40;;;17.60;99.90;;;;;;5047425;28;20668;-77
2022/08/24 05:21:09;;;;;;;31.40;28.15;;;17.70;99.90;;;;;;5046739;28;20052;-79
2022/08/24 05:23:37;;;;;;;35.15;31.40;;;17.70;99.90;;;;;;5028146;28;20048;-77
2022/08/24 05:26:24;;;;;;;30.65;27.45;;;17.70;99.90;;;;;;5046442;28;20041;-77
2022/08/24 05:28:53;;;;;;;32.25;28.80;;;17.70;99.90;;;;;;5046940;28;20048;-78
2022/08/24 05:31:21;;;;;;;33.08;29.48;;;17.70;99.90;;;;;;5025736;28;20587;-77
2022/08/24 05:33:48;;;;;;;36.33;30.77;;;17.80;99.90;;;;;;5044424;28;20049;-76
2022/08/24 05:36:28;;;;;;;33.63;30.27;;;17.90;99.90;;;;;;5040172;28;20037;-78
2022/08/24 05:38:56;;;;;;;31.38;27.98;;;17.90;99.90;;;;;;5045960;28;20147;-78
2022/08/24 05:41:22;;;;;;;30.90;27.92;;;17.80;99.90;;;;;;5045637;28;20039;-77
2022/08/24 05:43:48;;;;;;;35.17;30.15;;;17.90;99.90;;;;;;5045378;28;20442;-80
2022/08/24 05:46:14;;;;;;;35.90;32.15;;;17.90;99.90;;;;;;5012886;28;20053;-78
2022/08/24 05:48:41;;;;;;;36.15;32.40;;;18.00;99.90;;;;;;5022911;28;20033;-77
2022/08/24 05:51:09;;;;;;;38.25;34.20;;;18.10;99.90;;;;;;5028767;28;20064;-78
2022/08/24 05:53:35;;;;;;;37.72;33.90;;;18.20;99.90;;;;;;5046843;28;20037;-77
2022/08/24 05:56:09;;;;;;;37.08;33.05;;;18.30;99.90;;;;;;5046371;28;20060;-78
2022/08/24 05:58:37;;;;;;;36.85;31.65;;;18.20;99.90;;;;;;5029975;28;20083;-77
2022/08/24 06:01:11;;;;;;;33.72;30.23;;;18.30;99.90;;;;;;5027955;28;20522;-78
2022/08/24 06:03:38;;;;;;;33.40;29.80;;;18.40;99.90;;;;;;5026409;28;20049;-79
2022/08/24 06:06:07;;;;;;;31.80;28.42;;;18.40;99.90;;;;;;5037916;28;20384;-79
2022/08/24 06:08:37;;;;;;;32.58;28.92;;;18.60;99.90;;;;;;5027888;28;20397;-79
2022/08/24 06:11:04;;;;;;;32.08;28.73;;;18.60;99.90;;;;;;5046711;28;20069;-80
2022/08/24 06:13:30;;;;;;;31.20;28.02;;;18.60;99.90;;;;;;5028825;28;20445;-79
2022/08/24 06:16:08;;;;;;;32.42;29.00;;;18.70;99.90;;;;;;5008799;28;20255;-77
2022/08/24 06:18:34;;;;;;;31.95;28.90;;;18.80;99.90;;;;;;5043819;28;20452;-77
2022/08/24 06:21:09;;;;;;;32.10;28.77;;;18.90;99.90;;;;;;5026968;28;20102;-79
2022/08/24 06:23:36;;;;;;;31.45;28.13;;;19.00;99.90;;;;;;5044456;28;20032;-78
2022/08/24 06:28:50;;;;;;;30.65;27.55;;;19.10;99.90;;;;;;5027801;28;20049;-77
2022/08/24 06:31:17;;;;;;;29.13;26.02;;;19.10;99.90;;;;;;5039538;28;20399;-77
2022/08/24 06:33:43;;;;;;;30.80;27.50;;;19.20;99.90;;;;;;5038077;28;20159;-77
2022/08/24 06:36:09;;;;;;;27.25;24.50;;;19.20;99.90;;;;;;5036213;28;20132;-77
2022/08/24 06:38:34;;;;;;;28.77;25.70;;;19.40;99.90;;;;;;5040836;28;20410;-77
2022/08/24 06:41:00;;;;;;;31.25;27.90;;;19.50;99.90;;;;;;5044061;28;20151;-76
2022/08/24 06:43:26;;;;;;;28.02;25.15;;;19.50;99.90;;;;;;5021670;28;20099;-77
2022/08/24 06:45:53;;;;;;;27.67;25.02;;;19.60;99.90;;;;;;5039254;28;20503;-76
2022/08/24 06:48:20;;;;;;;25.40;22.90;;;19.70;99.90;;;;;;5040641;28;20072;-77
2022/08/24 06:50:46;;;;;;;27.25;24.55;;;19.80;99.90;;;;;;5046200;28;20060;-76
2022/08/24 06:53:15;;;;;;;27.15;24.15;;;19.90;99.90;;;;;;5043382;28;20377;-77
2022/08/24 06:55:57;;;;;;;27.80;25.03;;;20.00;99.90;;;;;;5024422;28;20081;-77
2022/08/24 06:58:26;;;;;;;28.25;25.55;;;20.10;99.90;;;;;;5041650;28;20829;-76
2022/08/24 07:00:54;;;;;;;28.77;23.88;;;20.10;99.90;;;;;;5038897;28;20095;-76
2022/08/24 07:03:19;;;;;;;28.35;25.48;;;20.20;99.90;;;;;;5037365;28;20390;-76
2022/08/24 07:05:53;;;;;;;28.55;25.48;;;20.80;99.90;;;;;;5041404;28;20045;-75
2022/08/24 07:08:19;;;;;;;24.20;21.65;;;21.40;99.90;;;;;;5026669;28;20049;-75
2022/08/24 07:10:45;;;;;;;27.80;24.90;;;22.80;99.90;;;;;;5044536;28;20510;-75
2022/08/24 07:13:12;;;;;;;27.42;23.27;;;23.60;99.90;;;;;;5043171;28;20041;-76
2022/08/24 07:15:38;;;;;;;26.58;23.73;;;23.90;99.90;;;;;;5045945;28;20041;-76
2022/08/24 07:18:08;;;;;;;24.42;22.00;;;24.00;99.90;;;;;;5047851;28;20037;-77
2022/08/24 07:20:35;;;;;;;23.77;21.30;;;22.90;99.90;;;;;;5046970;28;20467;-77
2022/08/24 07:23:01;;;;;;;24.42;21.90;;;22.50;99.90;;;;;;5030205;28;20044;-74
2022/08/24 07:25:29;;;;;;;23.17;20.27;;;22.40;99.90;;;;;;5048584;28;20059;-75
2022/08/24 07:27:55;;;;;;;24.83;21.50;;;22.20;99.90;;;;;;5047719;28;20187;-75
2022/08/24 07:30:21;;;;;;;22.27;20.13;;;22.00;99.90;;;;;;5047613;28;20132;-75
2022/08/24 07:32:46;;;;;;;22.92;20.67;;;22.00;99.90;;;;;;5045216;28;20067;-74
2022/08/24 07:35:12;;;;;;;21.65;19.63;;;22.10;99.90;;;;;;5031858;28;20044;-75
2022/08/24 07:37:38;;;;;;;22.50;20.17;;;22.30;99.90;;;;;;5048544;28;20045;-76
2022/08/24 07:40:04;;;;;;;21.75;19.40;;;22.40;99.90;;;;;;5031954;28;20052;-76
2022/08/24 07:42:30;;;;;;;21.90;19.70;;;22.40;99.90;;;;;;5032290;28;20040;-76
2022/08/24 07:44:56;;;;;;;21.40;19.13;;;22.50;99.90;;;;;;5034434;28;20523;-75
2022/08/24 07:47:21;;;;;;;21.73;18.25;;;22.80;99.90;;;;;;5048147;28;20021;-74
2022/08/24 07:49:48;;;;;;;20.98;15.30;;;22.90;99.90;;;;;;5011500;28;20068;-78
2022/08/24 07:52:14;;;;;;;18.73;15.25;;;23.10;99.90;;;;;;5043353;28;20049;-75
2022/08/24 07:54:41;;;;;;;16.25;13.90;;;23.20;99.90;;;;;;5032264;28;20103;-75
2022/08/24 07:57:07;;;;;;;15.65;13.90;;;23.40;99.90;;;;;;5030452;28;20304;-75
2022/08/24 07:59:34;;;;;;;17.13;15.27;;;23.50;99.90;;;;;;5047950;28;20044;-74
2022/08/24 08:02:00;;;;;;;15.43;13.90;;;23.60;99.90;;;;;;5029594;28;20048;-76
2022/08/24 08:04:26;;;;;;;18.95;16.20;;;23.60;99.90;;;;;;5023967;28;20596;-77
2022/08/24 08:06:52;;;;;;;18.52;15.05;;;23.80;99.90;;;;;;5047788;28;20450;-76
2022/08/24 08:09:19;;;;;;;12.85;10.27;;;23.80;99.90;;;;;;5031155;28;20388;-76
2022/08/24 08:11:44;;;;;;;12.55;10.55;;;23.90;99.90;;;;;;5049216;28;20052;-76
2022/08/24 08:14:12;;;;;;;12.55;10.18;;;24.00;99.90;;;;;;5027185;28;20037;-80
2022/08/24 08:16:38;;;;;;;11.60;10.52;;;24.10;99.90;;;;;;5048474;28;20115;-77
2022/08/24 08:19:04;;;;;;;11.18;9.93;;;24.10;99.90;;;;;;5048832;28;20040;-73
2022/08/24 08:24:21;;;;;;;11.95;8.77;;;24.20;99.90;;;;;;5023825;28;20045;-75
2022/08/24 08:26:51;;;;;;;10.55;6.75;;;24.40;99.90;;;;;;5046912;28;20041;-74
2022/08/24 08:29:18;;;;;;;8.57;7.20;;;24.40;99.90;;;;;;5029299;28;20152;-74
2022/08/24 08:31:44;;;;;;;10.05;8.13;;;24.50;99.90;;;;;;5030337;28;20295;-74
2022/08/24 08:34:11;;;;;;;5.82;5.22;;;24.60;99.90;;;;;;5044250;28;20127;-74
2022/08/24 08:36:39;;;;;;;8.57;6.35;;;24.60;99.90;;;;;;5044747;28;20056;-75
2022/08/24 08:39:07;;;;;;;9.05;6.15;;;24.70;99.90;;;;;;5047580;28;20039;-74
2022/08/24 08:41:57;;;;;;;8.02;5.45;;;24.70;99.90;;;;;;5049264;28;20041;-74
2022/08/24 08:44:46;;;;;;;9.45;7.10;;;24.90;99.90;;;;;;5045883;28;20044;-74
2022/08/24 08:47:42;;;;;;;7.10;5.40;;;24.90;99.90;;;;;;5046574;28;20094;-75
2022/08/24 08:50:28;;;;;;;10.10;6.45;;;25.10;99.90;;;;;;5026285;28;20099;-74
2022/08/24 08:53:00;;;;;;;10.32;6.35;;;25.10;99.90;;;;;;5027367;28;20049;-74
2022/08/24 08:55:38;;;;;;;9.75;5.07;;;25.20;99.90;;;;;;5044267;28;20071;-74
2022/08/24 08:58:19;;;;;;;7.32;4.65;;;25.20;99.90;;;;;;5047953;28;20045;-74
2022/08/24 09:01:01;;;;;;;6.60;5.72;;;25.40;99.90;;;;;;5046604;28;20053;-74
2022/08/24 09:03:43;;;;;;;9.13;5.22;;;25.40;99.90;;;;;;5046022;28;20049;-75
2022/08/24 09:06:31;;;;;;;8.55;5.95;;;25.40;99.90;;;;;;5044946;28;20043;-74
2022/08/24 09:09:15;;;;;;;8.25;5.18;;;25.40;99.90;;;;;;5037438;28;20037;-74
2022/08/24 09:12:07;;;;;;;9.13;4.30;;;25.60;99.90;;;;;;5028661;28;20438;-74
2022/08/24 09:14:58;;;;;;;8.07;4.80;;;25.70;99.90;;;;;;5044285;28;20059;-74
2022/08/24 09:17:58;;;;;;;9.23;5.90;;;25.60;99.90;;;;;;5029923;28;20361;-74
2022/08/24 09:20:45;;;;;;;5.28;4.75;;;25.50;99.90;;;;;;5028119;28;20052;-75
2022/08/24 09:23:14;;;;;;;10.88;6.15;;;25.90;99.90;;;;;;5028335;28;20495;-75
2022/08/24 09:26:05;;;;;;;6.70;4.90;;;25.90;99.90;;;;;;5044671;28;20033;-74
2022/08/24 09:28:53;;;;;;;4.18;3.78;;;26.00;99.90;;;;;;5027178;28;20056;-73
2022/08/24 09:31:45;;;;;;;4.95;3.95;;;26.00;99.90;;;;;;5030086;28;20053;-74
2022/08/24 09:34:55;;;;;;;10.02;5.13;;;26.30;99.90;;;;;;5043748;28;20074;-74
2022/08/24 09:37:27;;;;;;;4.05;3.65;;;26.20;99.90;;;;;;5016109;28;20075;-74
2022/08/24 09:40:35;;;;;;;6.43;4.05;;;26.30;99.90;;;;;;5041981;28;20140;-73
2022/08/24 09:43:15;;;;;;;7.32;4.25;;;26.10;99.90;;;;;;5010476;28;20052;-74
2022/08/24 09:46:03;;;;;;;5.25;3.20;;;26.30;99.90;;;;;;5041070;28;20171;-73
2022/08/24 09:48:58;;;;;;;9.95;4.45;;;26.50;99.90;;;;;;5027886;28;20037;-74
2022/08/24 09:51:58;;;;;;;6.38;2.80;;;26.60;99.90;;;;;;5028525;28;20777;-74
2022/08/24 09:54:39;;;;;;;5.00;3.20;;;26.70;99.90;;;;;;5020643;28;20133;-74
2022/08/24 09:57:19;;;;;;;5.13;3.42;;;26.60;99.90;;;;;;5024918;28;20408;-73
2022/08/24 10:00:17;;;;;;;7.47;3.35;;;26.70;99.90;;;;;;5045581;28;20049;-75
2022/08/24 10:03:11;;;;;;;3.17;2.42;;;26.80;99.90;;;;;;5026518;28;20041;-75
2022/08/24 10:06:05;;;;;;;2.63;2.08;;;27.00;99.90;;;;;;5020990;28;20400;-76
2022/08/24 10:09:10;;;;;;;6.28;2.00;;;26.90;99.90;;;;;;5026829;28;20453;-75
2022/08/24 10:12:21;;;;;;;4.13;2.15;;;26.90;99.90;;;;;;5045766;28;20087;-74
2022/08/24 10:14:52;;;;;;;6.57;2.47;;;27.00;99.90;;;;;;5025848;28;20059;-74
2022/08/24 10:17:41;;;;;;;2.38;1.90;;;27.10;99.90;;;;;;5043241;28;20041;-74
2022/08/24 10:20:33;;;;;;;4.72;2.40;;;27.20;99.90;;;;;;5027634;28;20033;-74
2022/08/24 10:23:42;;;;;;;3.28;2.22;;;27.20;99.90;;;;;;5046193;28;20047;-73
2022/08/24 10:26:22;;;;;;;6.72;2.95;;;27.30;99.90;;;;;;5013313;28;20041;-74
2022/08/24 10:29:16;;;;;;;9.35;2.55;;;27.20;99.90;;;;;;5041171;28;20060;-75
2022/08/24 10:32:14;;;;;;;3.22;1.60;;;27.30;99.90;;;;;;5045858;28;20052;-74
2022/08/24 10:34:53;;;;;;;3.35;2.03;;;27.40;99.90;;;;;;5046661;28;20071;-76
2022/08/24 10:39:39;;;;;;;5.65;1.88;;;27.60;99.90;;;;;;5038374;28;20508;-76
2022/08/24 10:40:53;;;;;;;3.22;1.30;;;27.50;99.90;;;;;;5045032;28;20712;-76
2022/08/24 10:43:40;;;;;;;2.05;1.30;;;27.50;99.90;;;;;;5046775;28;20044;-80
2022/08/24 10:46:32;;;;;;;7.40;1.40;;;27.50;99.90;;;;;;5052295;28;20048;-85
2022/08/24 10:49:39;;;;;;;2.13;1.63;;;27.50;99.90;;;;;;5048069;28;20041;-79
2022/08/24 10:52:23;;;;;;;3.65;1.50;;;27.60;99.90;;;;;;5017209;28;20041;-78
2022/08/24 10:54:50;;;;;;;1.65;1.20;;;27.80;99.90;;;;;;5026673;28;20048;-77
2022/08/24 10:57:25;;;;;;;3.78;1.48;;;27.80;99.90;;;;;;5041675;28;20041;-78
2022/08/24 10:59:56;;;;;;;3.72;1.98;;;27.90;99.90;;;;;;5045457;28;20045;-77
2022/08/24 11:02:36;;;;;;;2.72;1.88;;;27.80;99.90;;;;;;5044716;28;20045;-78
2022/08/24 11:05:09;;;;;;;3.47;1.80;;;27.70;99.90;;;;;;5045516;28;20044;-77
2022/08/24 11:07:36;;;;;;;3.58;1.33;;;27.90;99.90;;;;;;5025776;28;20183;-77
2022/08/24 11:10:07;;;;;;;1.30;1.20;;;28.00;99.90;;;;;;5027629;28;20511;-77
2022/08/24 11:12:37;;;;;;;2.03;1.17;;;28.10;99.90;;;;;;5043152;28;20179;-78
2022/08/24 11:15:09;;;;;;;2.10;1.10;;;28.10;99.90;;;;;;5045098;28;20072;-77
2022/08/24 11:17:36;;;;;;;2.63;1.92;;;28.20;99.90;;;;;;5043967;28;20041;-77
2022/08/24 11:20:02;;;;;;;3.55;1.80;;;28.30;99.90;;;;;;5046444;28;20041;-77
2022/08/24 11:22:55;;;;;;;2.08;1.10;;;28.40;99.90;;;;;;5027364;28;20406;-75
2022/08/24 11:25:33;;;;;;;1.40;1.23;;;28.40;99.90;;;;;;5042616;28;20503;-84
2022/08/24 11:28:09;;;;;;;4.63;1.95;;;28.60;99.90;;;;;;5028168;28;20372;-83
2022/08/24 11:30:39;;;;;;;2.78;2.00;;;28.30;99.90;;;;;;5041133;28;20416;-87
2022/08/24 11:33:22;;;;;;;1.83;1.00;;;28.30;99.90;;;;;;5047067;28;20246;-81
2022/08/24 11:35:48;;;;;;;2.05;0.90;;;28.60;99.90;;;;;;5042936;28;20125;-77
2022/08/24 11:38:20;;;;;;;3.35;1.52;;;28.80;99.90;;;;;;5044891;28;20041;-82
2022/08/24 11:41:18;;;;;;;2.95;1.00;;;29.00;99.90;;;;;;5030105;28;20255;-87
2022/08/24 11:43:52;;;;;;;2.53;1.45;;;28.70;99.90;;;;;;5047370;28;20146;-85
2022/08/24 11:46:45;;;;;;;1.83;1.50;;;28.30;99.90;;;;;;5044945;28;20041;-84
2022/08/24 11:49:35;;;;;;;10.45;2.53;;;28.00;99.90;;;;;;5027849;28;20057;-84
2022/08/24 11:52:16;;;;;;;1.77;0.93;;;28.00;99.90;;;;;;5046044;28;20492;-87
2022/08/24 11:54:52;;;;;;;1.30;1.20;;;28.40;99.90;;;;;;5043057;28;20156;-76
2022/08/24 11:57:53;;;;;;;1.38;1.27;;;28.40;99.90;;;;;;5041070;28;20518;-82
2022/08/24 12:00:25;;;;;;;3.97;2.13;;;28.50;99.90;;;;;;4974828;28;20121;-82
2022/08/24 12:03:08;;;;;;;2.90;1.70;;;28.80;99.90;;;;;;5046415;28;20079;-83
2022/08/24 12:05:48;;;;;;;3.13;1.52;;;28.80;99.90;;;;;;5048145;28;20056;-80
2022/08/24 12:08:20;;;;;;;7.38;2.15;;;28.90;99.90;;;;;;5026885;28;20170;-84
2022/08/24 12:11:04;;;;;;;5.55;1.27;;;28.80;99.90;;;;;;5038780;28;20048;-83
2022/08/24 12:13:55;;;;;;;2.92;1.63;;;28.50;99.90;;;;;;5043591;28;20060;-82
2022/08/24 12:16:50;;;;;;;1.98;1.42;;;28.60;99.90;;;;;;5047131;28;20052;-83
2022/08/24 12:19:27;;;;;;;3.50;2.20;;;28.20;99.90;;;;;;5029123;28;20049;-81
2022/08/24 12:21:56;;;;;;;2.53;1.73;;;28.10;99.90;;;;;;5028609;28;20056;-81
2022/08/24 12:24:38;;;;;;;3.75;1.75;;;27.80;99.90;;;;;;5028319;28;20447;-81
2022/08/24 12:27:24;;;;;;;3.00;1.10;;;27.70;99.90;;;;;;5047346;28;20099;-78
2022/08/24 12:29:53;;;;;;;3.50;1.00;;;27.70;99.90;;;;;;5046855;28;20124;-81
2022/08/24 12:32:33;;;;;;;3.47;1.20;;;27.70;99.90;;;;;;5046436;28;20132;-82
2022/08/24 12:35:21;;;;;;;3.75;1.30;;;27.70;99.90;;;;;;5045978;28;20041;-82
2022/08/24 12:37:51;;;;;;;1.77;1.45;;;27.70;99.90;;;;;;5047079;28;20049;-81
2022/08/24 12:40:17;;;;;;;1.55;1.45;;;28.20;99.90;;;;;;5029682;28;20391;-80
2022/08/24 12:42:53;;;;;;;1.63;1.30;;;28.60;99.90;;;;;;5047934;28;20041;-81
2022/08/24 12:45:21;;;;;;;4.15;1.55;;;28.80;99.90;;;;;;5042806;28;20127;-83
2022/08/24 12:48:20;;;;;;;2.58;1.30;;;28.70;99.90;;;;;;5026390;28;20037;-82
2022/08/24 12:51:00;;;;;;;1.52;1.42;;;28.10;99.90;;;;;;5047366;28;20550;-82
2022/08/24 12:54:12;;;;;;;1.42;1.33;;;27.80;99.90;;;;;;5040264;28;20044;-81
2022/08/24 12:56:41;;;;;;;2.17;1.45;;;27.70;99.90;;;;;;5040368;28;20098;-81
2022/08/24 12:59:22;;;;;;;2.83;1.25;;;27.60;99.90;;;;;;5044851;28;20115;-81
2022/08/24 13:01:59;;;;;;;1.70;0.85;;;27.60;99.90;;;;;;5046740;28;20566;-81
2022/08/24 13:05:02;;;;;;;4.88;1.48;;;27.70;99.90;;;;;;5047048;28;20500;-81
2022/08/24 13:07:37;;;;;;;1.38;1.10;;;27.90;99.90;;;;;;5012876;28;20526;-81
2022/08/24 13:10:15;;;;;;;1.60;1.00;;;28.30;99.90;;;;;;5047573;28;20055;-83